Terminal Aerodrome Forecast
Issued by NWS Upton, NY

Home | Current Version | Previous Version | Text Only | Print | Product List | Glossary On
Versions: 1 2 3 4 5 6 7 8 9 10 11 12 13 14 15 16 17 18 19 20 21 22 23 24 25 26 27 28 29 30 31 32 33 34
998
FTUS41 KOKX 251447 AAE
TAFEWR
TAF AMD
KEWR 251447Z 2515/2618 15007KT 5SM BR SCT025 OVC050
     FM251600 15010KT 6SM BR OVC025
     FM251800 16011KT 6SM BR SCT008 BKN025
     FM252300 18011KT 6SM -SHRA BR SCT008 BKN025
      TEMPO 2523/2601 3SM -TSRA BKN008CB
     FM260100 27015G23KT P6SM VCSH BKN015
     FM260300 28015G23KT P6SM BKN060
     FM260500 30018G26KT P6SM SCT100
     FM261200 28015G23KT P6SM SCT050 SCT250=

USA.gov is the U.S. government's official web portal to all federal, state and local government web resources and services.